createdAt,value
2019-01-13T00:03:13.136Z,28.47
2019-01-13T00:08:14.673Z,32.27
2019-01-13T00:13:16.231Z,32.90
2019-01-13T00:18:17.731Z,40.57
2019-01-13T00:23:19.662Z,30.90
2019-01-13T00:28:21.190Z,34.93
2019-01-13T00:33:22.894Z,35.80
2019-01-13T00:38:24.464Z,35.83
2019-01-13T00:43:26.036Z,38.17
2019-01-13T00:48:27.572Z,29.37
2019-01-13T00:53:29.124Z,34.53
2019-01-13T00:58:30.673Z,36.87
2019-01-13T01:03:32.207Z,32.57
2019-01-13T01:08:34.112Z,32.87
2019-01-13T01:13:35.793Z,34.40
2019-01-13T01:18:39.129Z,35.60
2019-01-13T01:23:40.684Z,36.17
2019-01-13T01:28:44.400Z,35.23
2019-01-13T01:33:46.274Z,32.17
2019-01-13T01:38:48.100Z,29.93
2019-01-13T01:43:49.648Z,30.83
2019-01-13T01:48:51.228Z,29.87
2019-01-13T01:53:54.562Z,25.60
2019-01-13T01:58:56.108Z,27.60
2019-01-13T02:03:57.701Z,28.03
2019-01-13T02:08:59.221Z,32.17
2019-01-13T02:14:01.961Z,28.93
2019-01-13T02:19:03.486Z,30.77
2019-01-13T02:24:05.049Z,28.57
2019-01-13T02:29:06.577Z,29.83
2019-01-13T02:34:08.117Z,32.83
2019-01-13T02:39:09.719Z,29.13
2019-01-13T02:44:11.264Z,33.07
2019-01-13T02:49:12.910Z,35.43
2019-01-13T02:54:14.422Z,36.93
2019-01-13T02:59:15.979Z,37.20
2019-01-13T03:04:17.559Z,32.97
2019-01-13T03:09:19.384Z,35.77
2019-01-13T03:14:21.298Z,39.57
2019-01-13T03:19:22.871Z,35.37
2019-01-13T03:24:25.031Z,33.97
2019-01-13T03:29:26.558Z,29.10
2019-01-13T03:34:28.103Z,36.17
2019-01-13T03:39:30.003Z,31.27
2019-01-13T03:44:31.559Z,36.00
2019-01-13T03:49:33.153Z,31.43
2019-01-13T03:54:34.719Z,32.70
2019-01-13T03:59:36.386Z,29.33
2019-01-13T04:04:38.030Z,29.83
2019-01-13T04:09:39.670Z,33.70
2019-01-13T04:14:41.219Z,27.40
2019-01-13T04:19:43.797Z,28.70
2019-01-13T04:24:45.348Z,28.70
2019-01-13T04:29:46.908Z,27.90
2019-01-13T04:34:48.503Z,20.30
2019-01-13T04:39:51.558Z,24.10
2019-01-13T04:44:53.100Z,20.90
2019-01-13T04:49:55.026Z,22.40
2019-01-13T04:54:56.545Z,29.87
2019-01-13T04:59:58.475Z,28.27
2019-01-13T05:05:00.301Z,30.73
2019-01-13T05:10:02.466Z,25.03
2019-01-13T05:15:04.337Z,31.87
2019-01-13T05:20:08.730Z,48.10
2019-01-13T05:25:10.285Z,36.10
2019-01-13T05:30:19.631Z,43.27
2019-01-13T05:35:21.521Z,39.70
2019-01-13T05:40:23.075Z,63.53
2019-01-13T05:45:24.749Z,48.33
2019-01-13T05:50:26.295Z,38.37
2019-01-13T05:55:27.824Z,52.90
2019-01-13T06:00:29.379Z,43.10
2019-01-13T06:05:30.878Z,43.83
2019-01-13T06:10:32.807Z,44.07
2019-01-13T06:15:34.350Z,44.93
2019-01-13T06:20:36.130Z,52.57
2019-01-13T06:25:37.668Z,35.73
2019-01-13T06:30:39.475Z,49.93
2019-01-13T06:35:41.030Z,42.30
2019-01-13T06:40:42.589Z,33.90
2019-01-13T06:45:44.889Z,44.03
2019-01-13T06:50:46.399Z,48.07
2019-01-13T06:55:48.016Z,40.27
2019-01-13T07:00:49.566Z,41.17
2019-01-13T07:05:51.121Z,36.13
2019-01-13T07:10:53.027Z,34.40
2019-01-13T07:15:54.913Z,24.50
2019-01-13T07:20:56.610Z,34.93
2019-01-13T07:25:58.320Z,33.80
2019-01-13T07:30:59.999Z,22.57
2019-01-13T07:36:01.564Z,25.73
2019-01-13T07:41:03.108Z,30.33
2019-01-13T07:46:05.531Z,24.70
2019-01-13T07:51:07.109Z,31.10
2019-01-13T07:56:08.643Z,30.23
2019-01-13T08:01:10.214Z,40.67
2019-01-13T08:06:11.777Z,32.87
2019-01-13T08:11:13.610Z,43.37
2019-01-13T08:16:15.156Z,30.20
2019-01-13T08:21:16.719Z,32.77
2019-01-13T08:26:18.220Z,25.37
2019-01-13T08:31:20.170Z,27.73
2019-01-13T08:36:24.852Z,30.10
2019-01-13T08:41:26.365Z,31.73
2019-01-13T08:46:28.372Z,29.60
2019-01-13T08:51:29.941Z,26.60
2019-01-13T08:56:31.795Z,25.33
2019-01-13T09:01:33.674Z,24.47
2019-01-13T09:06:35.212Z,28.17
2019-01-13T09:11:38.324Z,29.53
2019-01-13T09:16:39.897Z,25.43
2019-01-13T09:21:41.487Z,24.17
2019-01-13T09:26:43.168Z,29.03
2019-01-13T09:31:44.709Z,26.70
2019-01-13T09:36:46.907Z,22.00
2019-01-13T09:41:48.811Z,31.97
2019-01-13T09:46:50.387Z,28.17
2019-01-13T09:51:51.944Z,24.57
2019-01-13T09:56:53.877Z,27.53
2019-01-13T10:01:55.421Z,27.57
2019-01-13T10:06:56.966Z,26.37
2019-01-13T10:11:58.869Z,17.70
2019-01-13T10:17:00.470Z,28.83
2019-01-13T10:22:02.186Z,32.03
2019-01-13T10:27:03.736Z,17.97
2019-01-13T10:32:06.308Z,27.53
2019-01-13T10:37:07.828Z,19.73
2019-01-13T10:42:09.392Z,27.77
2019-01-13T10:47:10.934Z,24.00
2019-01-13T10:52:12.488Z,25.13
2019-01-13T10:57:14.100Z,18.33
2019-01-13T11:02:15.712Z,18.10
2019-01-13T11:07:17.633Z,21.63
2019-01-13T11:12:19.198Z,33.53
2019-01-13T11:17:20.730Z,21.80
2019-01-13T11:22:22.337Z,26.00
2019-01-13T11:27:23.883Z,23.47
2019-01-13T11:32:26.582Z,27.00
2019-01-13T11:37:28.111Z,26.27
2019-01-13T11:42:29.672Z,27.73
2019-01-13T11:47:31.277Z,31.17
2019-01-13T11:52:32.937Z,18.27
2019-01-13T11:57:34.501Z,16.80
2019-01-13T12:02:36.128Z,20.33
2019-01-13T12:07:37.716Z,28.40
2019-01-13T12:12:39.275Z,25.40
2019-01-13T12:17:41.257Z,17.87
2019-01-13T12:22:43.574Z,24.47
2019-01-13T12:27:45.226Z,17.67
2019-01-13T12:32:46.827Z,26.03
2019-01-13T12:37:48.383Z,26.67
2019-01-13T12:42:50.116Z,18.73
2019-01-13T12:47:51.633Z,25.70
2019-01-13T12:52:53.183Z,23.93
2019-01-13T12:57:55.567Z,20.47
2019-01-13T13:02:57.796Z,21.23
2019-01-13T13:07:59.688Z,28.73
2019-01-13T13:13:01.330Z,19.53
2019-01-13T13:18:03.999Z,16.77
2019-01-13T13:23:06.136Z,23.50
2019-01-13T13:28:07.750Z,19.37
2019-01-13T13:33:09.418Z,17.83
2019-01-13T13:38:11.108Z,17.87
2019-01-13T13:43:12.760Z,15.77
2019-01-13T13:48:14.345Z,22.63
2019-01-13T13:53:16.056Z,19.73
2019-01-13T13:58:17.591Z,18.57
2019-01-13T14:03:19.202Z,21.40
2019-01-13T14:08:20.865Z,17.80
2019-01-13T14:13:22.410Z,16.27
2019-01-13T14:18:23.942Z,18.80
2019-01-13T14:23:25.589Z,16.10
2019-01-13T14:28:27.185Z,15.70
2019-01-13T14:33:28.703Z,14.73
2019-01-13T14:38:30.370Z,17.73
2019-01-13T14:43:31.898Z,16.53
2019-01-13T14:48:33.542Z,15.87
2019-01-13T14:53:35.414Z,14.33
2019-01-13T14:58:36.956Z,14.77
2019-01-13T15:03:38.920Z,21.73
2019-01-13T15:08:40.632Z,17.33
2019-01-13T15:13:42.113Z,13.77
2019-01-13T15:18:43.669Z,12.27
2019-01-13T15:23:45.332Z,16.87
2019-01-13T15:28:46.807Z,15.97
2019-01-13T15:33:48.290Z,15.57
2019-01-13T15:38:49.830Z,12.20
2019-01-13T15:43:51.389Z,9.47
2019-01-13T15:48:53.004Z,13.07
2019-01-13T15:53:54.576Z,12.63
2019-01-13T15:58:56.174Z,12.60
2019-01-13T16:03:57.836Z,12.87
2019-01-13T16:08:59.351Z,9.70
2019-01-13T16:14:00.986Z,12.33
2019-01-13T16:19:02.511Z,8.33
2019-01-13T16:24:04.095Z,13.77
2019-01-13T16:29:05.650Z,9.03
2019-01-13T16:34:07.501Z,9.50
2019-01-13T16:39:09.509Z,14.10
2019-01-13T16:44:11.029Z,8.70
2019-01-13T16:49:12.577Z,11.97
2019-01-13T16:54:14.149Z,13.07
2019-01-13T16:59:15.694Z,21.37
2019-01-13T17:04:17.599Z,9.30
2019-01-13T17:09:19.089Z,16.97
2019-01-13T17:14:20.641Z,11.97
2019-01-13T17:19:22.243Z,14.37
2019-01-13T17:24:23.773Z,11.07
2019-01-13T17:29:25.315Z,12.47
2019-01-13T17:34:26.822Z,10.20
2019-01-13T17:39:28.371Z,13.70
2019-01-13T17:44:29.904Z,14.50
2019-01-13T17:49:31.541Z,14.60
2019-01-13T17:54:33.049Z,20.00
2019-01-13T17:59:34.635Z,15.77
2019-01-13T18:04:42.883Z,15.50
2019-01-13T18:09:39.690Z,15.37
2019-01-13T18:14:41.242Z,8.10
2019-01-13T18:19:42.885Z,14.47
2019-01-13T18:24:44.392Z,13.17
2019-01-13T18:29:46.305Z,12.93
2019-01-13T18:34:50.456Z,13.63
2019-01-13T18:39:51.309Z,9.50
2019-01-13T18:44:52.897Z,12.00
2019-01-13T18:49:54.892Z,15.40
2019-01-13T18:54:56.439Z,12.10
2019-01-13T18:59:58.021Z,15.67
2019-01-13T19:04:59.618Z,8.90
2019-01-13T19:10:01.199Z,21.33
2019-01-13T19:15:05.494Z,21.50
2019-01-13T19:20:13.284Z,26.53
2019-01-13T19:25:23.680Z,24.23
2019-01-13T19:30:25.595Z,24.50
2019-01-13T19:35:27.147Z,25.77
2019-01-13T19:40:29.018Z,26.00
2019-01-13T19:45:31.000Z,21.17
2019-01-13T19:50:32.629Z,27.63
2019-01-13T19:55:34.202Z,24.60
2019-01-13T20:00:36.134Z,28.07
2019-01-13T20:05:37.687Z,33.10
2019-01-13T20:10:39.305Z,34.40
2019-01-13T20:15:40.863Z,28.50
2019-01-13T20:20:42.484Z,27.57
2019-01-13T20:25:44.373Z,31.60
2019-01-13T20:30:46.082Z,33.90
2019-01-13T20:35:47.770Z,39.37
2019-01-13T20:40:49.345Z,31.73
2019-01-13T20:45:50.979Z,33.03
2019-01-13T20:50:52.615Z,30.97
2019-01-13T20:55:54.636Z,32.13
2019-01-13T21:00:56.584Z,37.23
2019-01-13T21:05:58.301Z,23.90
2019-01-13T21:11:00.063Z,35.77
2019-01-13T21:16:02.885Z,23.50
2019-01-13T21:21:04.440Z,28.87
2019-01-13T21:26:06.075Z,31.70
2019-01-13T21:31:08.721Z,32.47
2019-01-13T21:36:10.299Z,30.43
2019-01-13T21:41:11.853Z,37.23
2019-01-13T21:46:13.411Z,37.83
2019-01-13T21:51:17.975Z,38.97
2019-01-13T21:56:19.729Z,25.17
2019-01-13T22:01:24.070Z,30.00
2019-01-13T22:06:26.132Z,43.03
2019-01-13T22:11:28.400Z,32.07
2019-01-13T22:16:30.047Z,34.33
2019-01-13T22:21:32.905Z,26.57
2019-01-13T22:26:35.306Z,38.40
2019-01-13T22:31:36.871Z,31.33
2019-01-13T22:36:38.514Z,33.77
2019-01-13T22:41:40.074Z,32.20
2019-01-13T22:46:41.622Z,25.70
2019-01-13T22:51:43.138Z,27.33
2019-01-13T22:56:44.697Z,26.80
2019-01-13T23:01:46.213Z,33.43
2019-01-13T23:06:47.778Z,28.10
2019-01-13T23:11:49.330Z,36.43
2019-01-13T23:16:50.889Z,35.87
2019-01-13T23:21:52.469Z,31.43
2019-01-13T23:26:54.008Z,26.70
2019-01-13T23:31:55.619Z,27.97
2019-01-13T23:36:57.192Z,40.70
2019-01-13T23:41:58.787Z,30.37
2019-01-13T23:47:00.558Z,36.90
2019-01-13T23:52:02.050Z,35.67
2019-01-13T23:57:03.645Z,34.80
